sensor_id;sensor_type;location;lat;lon;timestamp;pressure;altitude;pressure_sealevel;temperature;humidity
6528;BME280;64597;42.664;23.256;2023-07-16T00:00:20;94802.91;;;24.84;60.13
6528;BME280;64597;42.664;23.256;2023-07-16T00:02:46;94804.34;;;24.73;60.53
6528;BME280;64597;42.664;23.256;2023-07-16T00:05:12;94796.53;;;24.63;60.81
6528;BME280;64597;42.664;23.256;2023-07-16T00:07:37;94767.94;;;24.45;61.04
6528;BME280;64597;42.664;23.256;2023-07-16T00:10:03;94775.53;;;24.43;60.68
6528;BME280;64597;42.664;23.256;2023-07-16T00:12:28;94801.59;;;24.65;61.18
6528;BME280;64597;42.664;23.256;2023-07-16T00:14:54;94798.75;;;24.61;61.31
6528;BME280;64597;42.664;23.256;2023-07-16T00:17:20;94801.44;;;24.61;60.98
6528;BME280;64597;42.664;23.256;2023-07-16T00:19:46;94789.22;;;24.55;61.41
6528;BME280;64597;42.664;23.256;2023-07-16T00:22:11;94802.38;;;24.57;61.38
6528;BME280;64597;42.664;23.256;2023-07-16T00:24:37;94789.84;;;24.52;61.30
6528;BME280;64597;42.664;23.256;2023-07-16T00:27:02;94795.38;;;24.55;61.19
6528;BME280;64597;42.664;23.256;2023-07-16T00:29:29;94783.50;;;24.48;61.23
6528;BME280;64597;42.664;23.256;2023-07-16T00:31:54;94804.28;;;24.56;61.55
6528;BME280;64597;42.664;23.256;2023-07-16T00:34:19;94797.44;;;24.50;61.54
6528;BME280;64597;42.664;23.256;2023-07-16T00:36:45;94770.31;;;24.29;61.44
6528;BME280;64597;42.664;23.256;2023-07-16T00:39:10;94763.47;;;24.23;61.45
6528;BME280;64597;42.664;23.256;2023-07-16T00:41:36;94796.00;;;24.44;61.35
6528;BME280;64597;42.664;23.256;2023-07-16T00:44:01;94786.97;;;24.40;61.92
6528;BME280;64597;42.664;23.256;2023-07-16T00:46:27;94794.88;;;24.45;61.65
6528;BME280;64597;42.664;23.256;2023-07-16T00:48:52;94790.94;;;24.42;61.59
6528;BME280;64597;42.664;23.256;2023-07-16T00:51:18;94794.41;;;24.34;61.73
6528;BME280;64597;42.664;23.256;2023-07-16T00:53:44;94799.00;;;24.34;61.93
6528;BME280;64597;42.664;23.256;2023-07-16T00:56:11;94792.66;;;24.30;62.10
6528;BME280;64597;42.664;23.256;2023-07-16T00:58:38;94794.72;;;24.24;62.24
6528;BME280;64597;42.664;23.256;2023-07-16T01:01:03;94799.31;;;24.24;62.23
6528;BME280;64597;42.664;23.256;2023-07-16T01:03:29;94796.28;;;24.17;62.34
6528;BME280;64597;42.664;23.256;2023-07-16T01:09:00;94786.25;;;24.09;62.48
6528;BME280;64597;42.664;23.256;2023-07-16T01:11:26;94773.69;;;23.96;62.50
6528;BME280;64597;42.664;23.256;2023-07-16T01:13:53;94783.81;;;23.99;62.72
6528;BME280;64597;42.664;23.256;2023-07-16T01:16:23;94796.06;;;24.05;62.81
6528;BME280;64597;42.664;23.256;2023-07-16T01:18:49;94795.09;;;24.01;62.73
6528;BME280;64597;42.664;23.256;2023-07-16T01:21:26;94796.06;;;24.05;62.97
6528;BME280;64597;42.664;23.256;2023-07-16T01:27:40;94787.44;;;23.86;63.09
6528;BME280;64597;42.664;23.256;2023-07-16T01:30:11;94788.19;;;23.77;63.23
6528;BME280;64597;42.664;23.256;2023-07-16T01:32:41;94791.22;;;23.85;63.70
6528;BME280;64597;42.664;23.256;2023-07-16T01:35:08;94787.44;;;23.86;63.60
6528;BME280;64597;42.664;23.256;2023-07-16T01:37:34;94788.84;;;23.83;63.60
6528;BME280;64597;42.664;23.256;2023-07-16T01:39:59;94788.06;;;23.83;63.81
6528;BME280;64597;42.664;23.256;2023-07-16T01:42:25;94792.84;;;23.86;63.62
6528;BME280;64597;42.664;23.256;2023-07-16T01:44:50;94785.00;;;23.75;63.58
6528;BME280;64597;42.664;23.256;2023-07-16T01:47:23;94801.03;;;23.81;63.79
6528;BME280;64597;42.664;23.256;2023-07-16T01:49:49;94800.44;;;23.84;63.92
6528;BME280;64597;42.664;23.256;2023-07-16T01:52:15;94793.88;;;23.76;64.01
6528;BME280;64597;42.664;23.256;2023-07-16T01:54:40;94789.56;;;23.66;63.92
6528;BME280;64597;42.664;23.256;2023-07-16T01:57:06;94797.00;;;23.69;63.97
6528;BME280;64597;42.664;23.256;2023-07-16T01:59:32;94803.38;;;23.73;64.31
6528;BME280;64597;42.664;23.256;2023-07-16T02:01:57;94806.22;;;23.68;64.16
6528;BME280;64597;42.664;23.256;2023-07-16T02:04:23;94801.47;;;23.74;64.21
6528;BME280;64597;42.664;23.256;2023-07-16T02:06:48;94791.16;;;23.67;63.96
6528;BME280;64597;42.664;23.256;2023-07-16T02:09:13;94797.50;;;23.71;64.24
6528;BME280;64597;42.664;23.256;2023-07-16T02:11:39;94773.84;;;23.60;63.90
6528;BME280;64597;42.664;23.256;2023-07-16T02:14:04;94797.50;;;23.71;64.37
6528;BME280;64597;42.664;23.256;2023-07-16T02:16:30;94798.75;;;23.65;64.36
6528;BME280;64597;42.664;23.256;2023-07-16T02:18:56;94799.06;;;23.64;64.76
6528;BME280;64597;42.664;23.256;2023-07-16T02:21:21;94793.19;;;23.62;65.01
6528;BME280;64597;42.664;23.256;2023-07-16T02:23:46;94786.31;;;23.47;64.89
6528;BME280;64597;42.664;23.256;2023-07-16T02:26:12;94802.50;;;23.56;64.77
6528;BME280;64597;42.664;23.256;2023-07-16T02:28:38;94803.91;;;23.53;64.86
6528;BME280;64597;42.664;23.256;2023-07-16T02:31:03;94807.56;;;23.57;65.19
6528;BME280;64597;42.664;23.256;2023-07-16T02:33:28;94801.22;;;23.53;64.93
6528;BME280;64597;42.664;23.256;2023-07-16T02:35:54;94815.78;;;23.52;64.74
6528;BME280;64597;42.664;23.256;2023-07-16T02:38:19;94793.72;;;23.42;65.27
6528;BME280;64597;42.664;23.256;2023-07-16T02:40:46;94789.31;;;23.24;65.41
6528;BME280;64597;42.664;23.256;2023-07-16T02:43:12;94814.13;;;23.34;65.25
6528;BME280;64597;42.664;23.256;2023-07-16T02:45:37;94761.63;;;23.01;64.88
6528;BME280;64597;42.664;23.256;2023-07-16T02:48:04;94804.44;;;23.33;65.03
6528;BME280;64597;42.664;23.256;2023-07-16T02:50:30;94801.75;;;23.33;65.42
6528;BME280;64597;42.664;23.256;2023-07-16T02:52:55;94819.09;;;23.27;65.49
6528;BME280;64597;42.664;23.256;2023-07-16T02:55:21;94813.09;;;23.30;65.59
6528;BME280;64597;42.664;23.256;2023-07-16T02:57:46;94800.69;;;23.21;65.74
6528;BME280;64597;42.664;23.256;2023-07-16T03:00:12;94815.59;;;23.27;65.48
6528;BME280;64597;42.664;23.256;2023-07-16T03:02:37;94813.72;;;23.27;65.98
6528;BME280;64597;42.664;23.256;2023-07-16T03:05:03;94801.31;;;23.18;66.18
6528;BME280;64597;42.664;23.256;2023-07-16T03:07:28;94808.19;;;23.10;66.04
6528;BME280;64597;42.664;23.256;2023-07-16T03:09:54;94808.41;;;23.14;66.01
6528;BME280;64597;42.664;23.256;2023-07-16T03:12:19;94813.16;;;23.17;66.37
6528;BME280;64597;42.664;23.256;2023-07-16T03:14:45;94809.81;;;23.11;66.33
6528;BME280;64597;42.664;23.256;2023-07-16T03:17:10;94803.44;;;23.07;66.25
6528;BME280;64597;42.664;23.256;2023-07-16T03:19:35;94824.72;;;23.17;66.09
6528;BME280;64597;42.664;23.256;2023-07-16T03:22:01;94815.19;;;23.11;65.73
6528;BME280;64597;42.664;23.256;2023-07-16T03:24:28;94820.56;;;23.11;66.09
6528;BME280;64597;42.664;23.256;2023-07-16T03:26:53;94819.94;;;23.14;65.75
6528;BME280;64597;42.664;23.256;2023-07-16T03:29:18;94823.56;;;23.10;65.73
6528;BME280;64597;42.664;23.256;2023-07-16T03:31:44;94825.94;;;23.11;66.19
6528;BME280;64597;42.664;23.256;2023-07-16T03:34:09;94828.50;;;23.16;65.75
6528;BME280;64597;42.664;23.256;2023-07-16T03:36:35;94820.56;;;23.11;66.04
6528;BME280;64597;42.664;23.256;2023-07-16T03:39:00;94825.31;;;23.14;65.59
6528;BME280;64597;42.664;23.256;2023-07-16T03:41:25;94823.44;;;23.15;65.55
6528;BME280;64597;42.664;23.256;2023-07-16T03:43:51;94829.31;;;23.17;65.69
6528;BME280;64597;42.664;23.256;2023-07-16T03:46:16;94840.28;;;23.20;65.43
6528;BME280;64597;42.664;23.256;2023-07-16T03:48:42;94837.25;;;23.22;65.53
6528;BME280;64597;42.664;23.256;2023-07-16T03:51:07;94825.31;;;23.14;65.36
6528;BME280;64597;42.664;23.256;2023-07-16T03:53:33;94831.88;;;23.22;65.62
6528;BME280;64597;42.664;23.256;2023-07-16T03:55:58;94805.81;;;23.09;65.67
6528;BME280;64597;42.664;23.256;2023-07-16T03:58:23;94838.09;;;23.31;65.95
6528;BME280;64597;42.664;23.256;2023-07-16T04:00:49;94832.31;;;23.15;66.23
6528;BME280;64597;42.664;23.256;2023-07-16T04:03:14;94852.28;;;23.23;66.18
6528;BME280;64597;42.664;23.256;2023-07-16T04:05:40;94839.94;;;23.22;66.16
6528;BME280;64597;42.664;23.256;2023-07-16T04:08:05;94848.38;;;23.29;65.68
6528;BME280;64597;42.664;23.256;2023-07-16T04:10:31;94790.41;;;22.78;65.71
6528;BME280;64597;42.664;23.256;2023-07-16T04:12:56;94844.97;;;23.37;65.54
6528;BME280;64597;42.664;23.256;2023-07-16T04:15:21;94840.41;;;23.37;nan
6528;BME280;64597;42.664;23.256;2023-07-16T04:17:47;94843.16;;;23.46;65.22
6528;BME280;64597;42.664;23.256;2023-07-16T04:20:12;94844.91;;;23.50;65.62
6528;BME280;64597;42.664;23.256;2023-07-16T04:22:39;94843.19;;;23.54;65.13
6528;BME280;64597;42.664;23.256;2023-07-16T04:25:04;94847.94;;;23.57;64.99
6528;BME280;64597;42.664;23.256;2023-07-16T04:27:30;94836.69;;;23.55;64.78
6528;BME280;64597;42.664;23.256;2023-07-16T04:29:55;94847.22;;;23.65;64.62
6528;BME280;64597;42.664;23.256;2023-07-16T04:32:21;94838.38;;;23.73;64.84
6528;BME280;64597;42.664;23.256;2023-07-16T04:34:47;94849.84;;;23.79;64.58
6528;BME280;64597;42.664;23.256;2023-07-16T04:37:12;94855.56;;;23.86;64.29
6528;BME280;64597;42.664;23.256;2023-07-16T04:39:38;94852.41;;;23.93;64.04
6528;BME280;64597;42.664;23.256;2023-07-16T04:42:03;94855.16;;;24.01;64.17
6528;BME280;64597;42.664;23.256;2023-07-16T04:44:29;94829.59;;;23.90;63.58
6528;BME280;64597;42.664;23.256;2023-07-16T04:46:54;94855.72;;;24.12;63.37
6528;BME280;64597;42.664;23.256;2023-07-16T04:49:20;94853.66;;;24.17;63.00
6528;BME280;64597;42.664;23.256;2023-07-16T04:51:45;94856.88;;;24.28;63.01
6528;BME280;64597;42.664;23.256;2023-07-16T04:54:10;94868.28;;;24.33;62.81
6528;BME280;64597;42.664;23.256;2023-07-16T04:56:36;94860.53;;;24.32;62.60
6528;BME280;64597;42.664;23.256;2023-07-16T04:59:01;94875.28;;;24.43;61.89
6528;BME280;64597;42.664;23.256;2023-07-16T05:01:27;94820.56;;;24.25;61.14
6528;BME280;64597;42.664;23.256;2023-07-16T05:03:52;94866.94;;;24.53;60.99
6528;BME280;64597;42.664;23.256;2023-07-16T05:06:18;94858.22;;;24.56;60.44
6528;BME280;64597;42.664;23.256;2023-07-16T05:08:43;94849.50;;;24.59;60.47
6528;BME280;64597;42.664;23.256;2023-07-16T05:11:08;94872.81;;;24.72;59.98
6528;BME280;64597;42.664;23.256;2023-07-16T05:13:34;94862.09;;;24.81;59.58
6528;BME280;64597;42.664;23.256;2023-07-16T05:15:59;94856.84;;;24.84;59.37
6528;BME280;64597;42.664;23.256;2023-07-16T05:18:25;94855.75;;;24.94;58.91
6528;BME280;64597;42.664;23.256;2023-07-16T05:20:50;94855.25;;;25.00;58.83
6528;BME280;64597;42.664;23.256;2023-07-16T05:23:16;94856.41;;;25.08;59.15
6528;BME280;64597;42.664;23.256;2023-07-16T05:25:46;94850.53;;;25.14;59.19
6528;BME280;64597;42.664;23.256;2023-07-16T05:28:12;94852.56;;;25.26;58.83
6528;BME280;64597;42.664;23.256;2023-07-16T05:30:38;94861.00;;;25.42;58.48
6528;BME280;64597;42.664;23.256;2023-07-16T05:33:03;94863.06;;;25.53;57.44
6528;BME280;64597;42.664;23.256;2023-07-16T05:35:29;94838.91;;;25.48;56.52
6528;BME280;64597;42.664;23.256;2023-07-16T05:37:54;94857.31;;;25.63;56.46
6528;BME280;64597;42.664;23.256;2023-07-16T05:40:19;94873.66;;;25.84;55.84
6528;BME280;64597;42.664;23.256;2023-07-16T05:42:45;94876.16;;;25.89;54.83
6528;BME280;64597;42.664;23.256;2023-07-16T05:45:10;94863.94;;;25.83;54.59
6528;BME280;64597;42.664;23.256;2023-07-16T05:47:36;94859.16;;;25.88;54.66
6528;BME280;64597;42.664;23.256;2023-07-16T05:50:01;94882.50;;;26.10;54.48
6528;BME280;64597;42.664;23.256;2023-07-16T05:52:27;94883.41;;;26.23;54.06
6528;BME280;64597;42.664;23.256;2023-07-16T05:54:52;94880.47;;;26.36;53.88
6528;BME280;64597;42.664;23.256;2023-07-16T05:57:17;94876.28;;;26.47;53.71
6528;BME280;64597;42.664;23.256;2023-07-16T05:59:43;94873.81;;;26.63;53.01
6528;BME280;64597;42.664;23.256;2023-07-16T06:02:08;94885.63;;;26.87;52.29
6528;BME280;64597;42.664;23.256;2023-07-16T06:04:34;94840.25;;;26.84;51.75
6528;BME280;64597;42.664;23.256;2023-07-16T06:06:59;94870.06;;;27.26;51.43
6528;BME280;64597;42.664;23.256;2023-07-16T06:09:25;94877.00;;;27.68;50.72
6528;BME280;64597;42.664;23.256;2023-07-16T06:11:50;94878.91;;;27.88;49.67
6528;BME280;64597;42.664;23.256;2023-07-16T06:14:16;94881.34;;;28.14;49.65
6528;BME280;64597;42.664;23.256;2023-07-16T06:16:42;94881.63;;;28.45;48.52
6528;BME280;64597;42.664;23.256;2023-07-16T06:19:09;94877.34;;;28.68;47.51
6528;BME280;64597;42.664;23.256;2023-07-16T06:21:34;94883.31;;;28.98;47.36
6528;BME280;64597;42.664;23.256;2023-07-16T06:24:00;94881.69;;;29.33;46.18
6528;BME280;64597;42.664;23.256;2023-07-16T06:26:26;94851.66;;;29.42;45.75
6528;BME280;64597;42.664;23.256;2023-07-16T06:28:51;94884.28;;;29.97;44.46
6528;BME280;64597;42.664;23.256;2023-07-16T06:31:17;94884.88;;;30.22;43.50
6528;BME280;64597;42.664;23.256;2023-07-16T06:33:43;94877.94;;;30.52;43.41
6528;BME280;64597;42.664;23.256;2023-07-16T06:36:08;94875.88;;;30.80;42.76
6528;BME280;64597;42.664;23.256;2023-07-16T06:38:34;94878.38;;;31.04;42.45
6528;BME280;64597;42.664;23.256;2023-07-16T06:40:59;94860.34;;;31.15;42.22
6528;BME280;64597;42.664;23.256;2023-07-16T06:43:25;94868.28;;;31.39;42.01
6528;BME280;64597;42.664;23.256;2023-07-16T06:45:50;94872.00;;;31.50;41.87
6528;BME280;64597;42.664;23.256;2023-07-16T06:48:16;94867.28;;;31.66;41.84
6528;BME280;64597;42.664;23.256;2023-07-16T06:50:42;94845.59;;;31.93;40.04
6528;BME280;64597;42.664;23.256;2023-07-16T06:53:07;94865.63;;;32.23;39.40
6528;BME280;64597;42.664;23.256;2023-07-16T06:55:33;94863.94;;;32.37;39.75
6528;BME280;64597;42.664;23.256;2023-07-16T06:58:00;94855.13;;;32.70;39.27
6528;BME280;64597;42.664;23.256;2023-07-16T07:00:27;94843.56;;;32.80;39.08
6528;BME280;64597;42.664;23.256;2023-07-16T07:02:52;94863.84;;;33.32;38.69
6528;BME280;64597;42.664;23.256;2023-07-16T07:05:18;94862.50;;;33.48;37.67
6528;BME280;64597;42.664;23.256;2023-07-16T07:07:43;94866.16;;;33.59;36.90
6528;BME280;64597;42.664;23.256;2023-07-16T07:10:11;94863.59;;;33.73;36.71
6528;BME280;64597;42.664;23.256;2023-07-16T07:12:37;94869.06;;;34.03;36.96
6528;BME280;64597;42.664;23.256;2023-07-16T07:15:05;94857.97;;;34.29;35.61
6528;BME280;64597;42.664;23.256;2023-07-16T07:17:31;94862.91;;;34.53;35.76
6528;BME280;64597;42.664;23.256;2023-07-16T07:19:57;94856.88;;;34.84;35.53
6528;BME280;64597;42.664;23.256;2023-07-16T07:22:22;94865.28;;;35.06;34.67
6528;BME280;64597;42.664;23.256;2023-07-16T07:24:47;94859.47;;;35.14;33.86
6528;BME280;64597;42.664;23.256;2023-07-16T07:27:13;94850.28;;;34.96;33.67
6528;BME280;64597;42.664;23.256;2023-07-16T07:29:38;94847.38;;;35.22;33.79
6528;BME280;64597;42.664;23.256;2023-07-16T07:32:04;94850.13;;;35.33;33.64
6528;BME280;64597;42.664;23.256;2023-07-16T07:34:29;94862.06;;;35.58;33.39
6528;BME280;64597;42.664;23.256;2023-07-16T07:36:55;94856.22;;;35.63;32.94
6528;BME280;64597;42.664;23.256;2023-07-16T07:39:20;94855.88;;;35.82;32.81
6528;BME280;64597;42.664;23.256;2023-07-16T07:41:45;94848.00;;;35.74;33.00
6528;BME280;64597;42.664;23.256;2023-07-16T07:44:11;94852.84;;;36.08;32.83
6528;BME280;64597;42.664;23.256;2023-07-16T07:46:36;94856.78;;;36.25;32.47
6528;BME280;64597;42.664;23.256;2023-07-16T07:49:02;94854.41;;;36.13;32.40
6528;BME280;64597;42.664;23.256;2023-07-16T07:51:27;94855.59;;;36.33;32.56
6528;BME280;64597;42.664;23.256;2023-07-16T07:53:53;94848.56;;;36.28;32.44
6528;BME280;64597;42.664;23.256;2023-07-16T07:56:18;94836.41;;;36.40;32.43
6528;BME280;64597;42.664;23.256;2023-07-16T07:58:43;94819.94;;;36.51;32.27
6528;BME280;64597;42.664;23.256;2023-07-16T08:01:09;94854.50;;;36.73;31.10
6528;BME280;64597;42.664;23.256;2023-07-16T08:03:35;94853.69;;;36.83;30.65
6528;BME280;64597;42.664;23.256;2023-07-16T08:06:00;94851.34;;;37.06;30.95
6528;BME280;64597;42.664;23.256;2023-07-16T08:08:26;94845.38;;;37.32;30.08
6528;BME280;64597;42.664;23.256;2023-07-16T08:10:52;94850.47;;;37.44;29.86
6528;BME280;64597;42.664;23.256;2023-07-16T08:13:17;94840.25;;;37.48;29.73
6528;BME280;64597;42.664;23.256;2023-07-16T08:15:43;94852.78;;;37.56;29.91
6528;BME280;64597;42.664;23.256;2023-07-16T08:18:09;94841.00;;;37.59;29.69
6528;BME280;64597;42.664;23.256;2023-07-16T08:20:37;94846.84;;;37.72;29.43
6528;BME280;64597;42.664;23.256;2023-07-16T08:23:03;94837.81;;;37.71;29.16
6528;BME280;64597;42.664;23.256;2023-07-16T08:25:28;94842.50;;;37.74;29.15
6528;BME280;64597;42.664;23.256;2023-07-16T08:27:54;94846.44;;;37.80;29.72
6528;BME280;64597;42.664;23.256;2023-07-16T08:30:20;94847.13;;;37.95;28.88
6528;BME280;64597;42.664;23.256;2023-07-16T08:32:46;94842.81;;;37.97;30.01
6528;BME280;64597;42.664;23.256;2023-07-16T08:35:12;94828.88;;;38.22;29.09
6528;BME280;64597;42.664;23.256;2023-07-16T08:37:44;94825.75;;;38.20;28.96
6528;BME280;64597;42.664;23.256;2023-07-16T08:40:11;94842.16;;;38.38;29.14
6528;BME280;64597;42.664;23.256;2023-07-16T08:42:37;94846.69;;;38.69;28.64
6528;BME280;64597;42.664;23.256;2023-07-16T08:45:06;94840.25;;;38.86;28.41
6528;BME280;64597;42.664;23.256;2023-07-16T08:47:32;94843.16;;;39.09;27.55
6528;BME280;64597;42.664;23.256;2023-07-16T08:49:58;94850.28;;;39.10;27.20
6528;BME280;64597;42.664;23.256;2023-07-16T08:52:26;94843.47;;;39.22;27.18
6528;BME280;64597;42.664;23.256;2023-07-16T08:54:52;94844.69;;;39.17;27.43
6528;BME280;64597;42.664;23.256;2023-07-16T08:57:18;94847.00;;;39.22;27.20
6528;BME280;64597;42.664;23.256;2023-07-16T08:59:47;94844.56;;;39.31;26.75
6528;BME280;64597;42.664;23.256;2023-07-16T09:02:13;94832.19;;;39.43;27.35
6528;BME280;64597;42.664;23.256;2023-07-16T09:04:39;94837.16;;;39.59;26.70
6528;BME280;64597;42.664;23.256;2023-07-16T09:07:05;94841.75;;;39.69;25.63
6528;BME280;64597;42.664;23.256;2023-07-16T09:09:30;94836.97;;;39.73;25.87
6528;BME280;64597;42.664;23.256;2023-07-16T09:11:56;94835.66;;;39.84;25.98
6528;BME280;64597;42.664;23.256;2023-07-16T09:14:21;94832.63;;;40.05;25.76
6528;BME280;64597;42.664;23.256;2023-07-16T09:16:51;94834.44;;;40.15;25.33
6528;BME280;64597;42.664;23.256;2023-07-16T09:19:16;94826.00;;;40.26;25.20
6528;BME280;64597;42.664;23.256;2023-07-16T09:21:48;94827.59;;;40.27;25.01
6528;BME280;64597;42.664;23.256;2023-07-16T09:24:13;94826.00;;;40.26;24.86
6528;BME280;64597;42.664;23.256;2023-07-16T09:26:46;94827.47;;;40.34;25.28
6528;BME280;64597;42.664;23.256;2023-07-16T09:29:12;94820.66;;;40.42;24.94
6528;BME280;64597;42.664;23.256;2023-07-16T09:31:37;94813.56;;;40.41;25.58
6528;BME280;64597;42.664;23.256;2023-07-16T09:34:03;94813.94;;;40.43;25.15
6528;BME280;64597;42.664;23.256;2023-07-16T09:36:28;94816.03;;;40.59;25.24
6528;BME280;64597;42.664;23.256;2023-07-16T09:38:54;94801.69;;;40.67;24.70
6528;BME280;64597;42.664;23.256;2023-07-16T09:41:21;94820.44;;;40.79;24.87
6528;BME280;64597;42.664;23.256;2023-07-16T09:43:47;94809.69;;;40.85;24.49
6528;BME280;64597;42.664;23.256;2023-07-16T09:46:13;94824.66;;;40.87;24.11
6528;BME280;64597;42.664;23.256;2023-07-16T09:48:39;94810.50;;;40.59;23.81
6528;BME280;64597;42.664;23.256;2023-07-16T09:51:07;94815.75;;;40.76;24.51
6528;BME280;64597;42.664;23.256;2023-07-16T09:53:36;94803.84;;;40.79;24.45
6528;BME280;64597;42.664;23.256;2023-07-16T09:56:02;94802.28;;;40.78;24.49
6528;BME280;64597;42.664;23.256;2023-07-16T09:58:29;94800.63;;;40.84;24.52
6528;BME280;64597;42.664;23.256;2023-07-16T10:00:56;94788.47;;;40.78;24.40
6528;BME280;64597;42.664;23.256;2023-07-16T10:03:22;94798.69;;;41.04;24.04
6528;BME280;64597;42.664;23.256;2023-07-16T10:05:47;94799.59;;;41.18;24.16
6528;BME280;64597;42.664;23.256;2023-07-16T10:08:18;94783.84;;;41.38;23.97
6528;BME280;64597;42.664;23.256;2023-07-16T10:10:52;94794.31;;;41.46;23.91
6528;BME280;64597;42.664;23.256;2023-07-16T10:13:22;94791.63;;;41.43;24.67
6528;BME280;64597;42.664;23.256;2023-07-16T10:15:54;94790.34;;;41.67;24.73
6528;BME280;64597;42.664;23.256;2023-07-16T10:18:28;94778.34;;;41.73;23.39
6528;BME280;64597;42.664;23.256;2023-07-16T10:21:01;94782.53;;;41.62;23.33
6528;BME280;64597;42.664;23.256;2023-07-16T10:23:39;94785.97;;;41.50;23.45
6528;BME280;64597;42.664;23.256;2023-07-16T10:26:09;94775.38;;;41.45;23.56
6528;BME280;64597;42.664;23.256;2023-07-16T10:28:36;94777.44;;;41.41;23.77
6528;BME280;64597;42.664;23.256;2023-07-16T10:31:01;94780.13;;;41.25;23.40
6528;BME280;64597;42.664;23.256;2023-07-16T10:33:27;94779.50;;;41.37;23.83
6528;BME280;64597;42.664;23.256;2023-07-16T10:35:53;94772.53;;;41.29;23.61
6528;BME280;64597;42.664;23.256;2023-07-16T10:38:18;94776.63;;;41.21;22.91
6528;BME280;64597;42.664;23.256;2023-07-16T10:40:45;94781.63;;;40.86;23.08
6528;BME280;64597;42.664;23.256;2023-07-16T10:43:12;94778.50;;;40.84;22.85
6528;BME280;64597;42.664;23.256;2023-07-16T10:45:37;94776.13;;;40.83;23.33
6528;BME280;64597;42.664;23.256;2023-07-16T10:48:03;94770.72;;;40.76;23.93
6528;BME280;64597;42.664;23.256;2023-07-16T10:50:32;94766.44;;;40.48;23.31
6528;BME280;64597;42.664;23.256;2023-07-16T10:52:58;94770.09;;;40.65;24.71
6528;BME280;64597;42.664;23.256;2023-07-16T10:55:26;94768.56;;;40.64;24.55
6528;BME280;64597;42.664;23.256;2023-07-16T10:57:52;94763.03;;;40.64;24.13
6528;BME280;64597;42.664;23.256;2023-07-16T11:00:19;94756.81;;;40.56;24.21
6528;BME280;64597;42.664;23.256;2023-07-16T11:02:44;94747.78;;;40.52;24.18
6528;BME280;64597;42.664;23.256;2023-07-16T11:05:11;94706.38;;;40.25;24.02
6528;BME280;64597;42.664;23.256;2023-07-16T11:07:38;94766.25;;;40.59;24.33
6528;BME280;64597;42.664;23.256;2023-07-16T11:10:03;94746.78;;;40.43;24.32
6528;BME280;64597;42.664;23.256;2023-07-16T11:12:29;94760.06;;;40.51;24.72
6528;BME280;64597;42.664;23.256;2023-07-16T11:14:55;94755.25;;;40.55;24.43
6528;BME280;64597;42.664;23.256;2023-07-16T11:17:23;94734.78;;;40.26;24.58
6528;BME280;64597;42.664;23.256;2023-07-16T11:19:51;94749.97;;;40.41;24.59
6528;BME280;64597;42.664;23.256;2023-07-16T11:22:17;94752.38;;;40.39;24.80
6528;BME280;64597;42.664;23.256;2023-07-16T11:24:48;94749.97;;;40.41;24.17
6528;BME280;64597;42.664;23.256;2023-07-16T11:27:18;94739.88;;;40.54;24.00
6528;BME280;64597;42.664;23.256;2023-07-16T11:29:47;94740.53;;;40.39;24.90
6528;BME280;64597;42.664;23.256;2023-07-16T11:32:25;94743.56;;;40.21;25.27
6528;BME280;64597;42.664;23.256;2023-07-16T11:34:55;94738.03;;;40.21;25.38
6528;BME280;64597;42.664;23.256;2023-07-16T11:37:21;94732.63;;;40.14;24.94
6528;BME280;64597;42.664;23.256;2023-07-16T11:39:47;94740.09;;;40.17;24.63
6528;BME280;64597;42.664;23.256;2023-07-16T11:42:14;94736.72;;;40.29;24.55
6528;BME280;64597;42.664;23.256;2023-07-16T11:44:43;94702.38;;;40.03;23.68
6528;BME280;64597;42.664;23.256;2023-07-16T11:47:08;94729.09;;;40.37;23.98
6528;BME280;64597;42.664;23.256;2023-07-16T11:49:34;94724.88;;;40.28;23.84
6528;BME280;64597;42.664;23.256;2023-07-16T11:51:59;94739.59;;;40.22;23.88
6528;BME280;64597;42.664;23.256;2023-07-16T11:54:25;94739.94;;;40.24;23.33
6528;BME280;64597;42.664;23.256;2023-07-16T11:56:50;94731.53;;;40.08;23.04
6528;BME280;64597;42.664;23.256;2023-07-16T11:59:16;94725.47;;;39.90;23.15
6528;BME280;64597;42.664;23.256;2023-07-16T12:01:47;94734.22;;;39.85;23.25
6528;BME280;64597;42.664;23.256;2023-07-16T12:04:14;94731.94;;;39.80;22.50
6528;BME280;64597;42.664;23.256;2023-07-16T12:06:39;94736.09;;;39.65;23.15
6528;BME280;64597;42.664;23.256;2023-07-16T12:09:04;94724.28;;;39.30;24.43
6528;BME280;64597;42.664;23.256;2023-07-16T12:11:30;94726.31;;;39.26;24.36
6528;BME280;64597;42.664;23.256;2023-07-16T12:13:55;94730.38;;;39.18;25.36
6528;BME280;64597;42.664;23.256;2023-07-16T12:16:21;94724.91;;;39.11;24.80
6528;BME280;64597;42.664;23.256;2023-07-16T12:18:46;94715.47;;;39.12;24.38
6528;BME280;64597;42.664;23.256;2023-07-16T12:21:12;94724.00;;;39.21;25.02
6528;BME280;64597;42.664;23.256;2023-07-16T12:23:37;94709.09;;;39.15;24.47
6528;BME280;64597;42.664;23.256;2023-07-16T12:26:02;94717.41;;;38.74;24.25
6528;BME280;64597;42.664;23.256;2023-07-16T12:28:28;94717.91;;;38.66;24.44
6528;BME280;64597;42.664;23.256;2023-07-16T12:30:53;94715.63;;;38.57;23.94
6528;BME280;64597;42.664;23.256;2023-07-16T12:33:19;94701.28;;;38.32;24.41
6528;BME280;64597;42.664;23.256;2023-07-16T12:35:44;94704.06;;;38.29;24.43
6528;BME280;64597;42.664;23.256;2023-07-16T12:38:10;94645.41;;;37.77;25.27
6528;BME280;64597;42.664;23.256;2023-07-16T12:40:35;94695.97;;;38.08;25.10
6528;BME280;64597;42.664;23.256;2023-07-16T12:43:06;94700.97;;;38.20;24.96
6528;BME280;64597;42.664;23.256;2023-07-16T12:45:31;94706.47;;;38.27;24.89
6528;BME280;64597;42.664;23.256;2023-07-16T12:47:57;94699.78;;;38.21;25.14
6528;BME280;64597;42.664;23.256;2023-07-16T12:50:22;94699.84;;;38.14;24.68
6528;BME280;64597;42.664;23.256;2023-07-16T12:52:48;94698.19;;;38.23;25.58
6528;BME280;64597;42.664;23.256;2023-07-16T12:55:14;94701.31;;;38.29;25.80
6528;BME280;64597;42.664;23.256;2023-07-16T12:57:42;94694.56;;;38.37;25.38
6528;BME280;64597;42.664;23.256;2023-07-16T13:00:08;94703.63;;;38.34;25.09